マン島 の空港の天気 - METARとTAF

マン島空港 ( EGNS / IOM ) - マン島 Isle of Man
飛行場実況気象(Metar)
観測時間02/05 19:20 GMT (02/05 19:20 UTC)
風向・風速南南西 5m/s
視程10km以上
天気現象
なし
気温7℃
湿度70%
気圧1044hPa
METAREGNS 051920Z 21010KT CAVOK 07/02 Q1044 NOSIG
過去の天気等 Google飛行場航空写真 Wunderground天気予報

過去48時間のMETAR

飛行場予報(TAF)
発表時間: 2/05 17:00 GMT (2/05 17:00 UTC)
予報対象時間: 5日18時 GMT ~ 5日22時 GMT
風向・風速南南西 6m/s
視程10km以上
少しの雲 雲底高度 610m
TAF EGNS 051700Z 0518/0522 21012KT 9999 FEW020